Weather reports worldwide

Advertisment
Punta Galea Golf, Spain (8059): temperature & dewpoint: 13.11.2019 19:00:00 - 19.11.2019 19:00:00 (CET)Punta Galea Golf, Spain (8059): wind speed & gusts: 13.11.2019 19:00:00 - 19.11.2019 19:00:00 (CET)Punta Galea Golf, Spain (8059): wind direction: 13.11.2019 19:00:00 - 19.11.2019 19:00:00 (CET)Punta Galea Golf, Spain (8059): reduced air pressure: 13.11.2019 19:00:00 - 19.11.2019 19:00:00 (CET)Punta Galea Golf, Spain (8059): precipitation: 13.11.2019 19:00:00 - 19.11.2019 19:00:00 (CET)
Date & Time tt [°C] td [°C] ff [km/h] ff [kn] fx [km/h] fx [kn] dd ppp [hPa] rr [mm]
19.11.2019 19:00:00 8,7 6,7 6 3 15 8 S 1013,9 -
19.11.2019 18:00:00 9,5 7,3 8 4 14 8 SE 1014,0 0,0
19.11.2019 17:00:00 10,7 7,4 9 5 16 9 SE 1014,2 0,0
19.11.2019 16:00:00 11,9 5,9 6 3 21 12 SSE 1014,3 0,0
19.11.2019 15:00:00 12,6 6,4 11 6 21 11 S 1014,9 0,0
19.11.2019 14:00:00 12,2 7,1 9 5 27 15 SSE 1015,5 0,0
19.11.2019 13:00:00 11,2 7,7 11 6 23 12 SE 1016,6 -
19.11.2019 12:00:00 9,9 8,0 9 5 22 12 SSE 1017,9 0,0
19.11.2019 11:00:00 8,3 7,6 11 6 19 10 SSE 1018,7 0,0
19.11.2019 10:00:00 6,7 6,4 9 5 19 10 SSE 1019,1 0,0
19.11.2019 09:00:00 5,6 5,3 9 5 16 9 S 1019,1 0,0
19.11.2019 08:00:00 4,8 4,5 7 4 14 8 SSE 1019,1 0,0
19.11.2019 07:00:00 5,4 5,1 9 5 14 8 S 1018,9 -
19.11.2019 06:00:00 5,8 5,5 8 5 14 8 S 1018,7 0,1
19.11.2019 05:00:00 5,9 5,6 9 5 16 9 SSE 1019,1 0,0
19.11.2019 04:00:00 6,2 5,9 8 4 13 7 S 1019,2 0,0
19.11.2019 03:00:00 6,8 6,5 8 4 13 7 SSE 1019,6 0,0
19.11.2019 02:00:00 6,5 6,2 8 5 13 7 SSE 1019,4 0,0
19.11.2019 01:00:00 7,1 6,8 8 4 13 7 S 1020,2 -
19.11.2019 00:00:00 7,6 7,1 6 4 12 6 S 1020,5 0,2
18.11.2019 23:00:00 7,4 7,0 9 5 15 8 SE 1020,6 0,3
18.11.2019 22:00:00 7,8 7,0 6 3 13 7 S 1020,6 0,0
18.11.2019 21:00:00 8,5 7,4 5 3 11 6 S 1020,5 0,0
18.11.2019 20:00:00 9,7 8,1 5 3 24 13 W 1019,9 0,0
18.11.2019 19:00:00 9,0 7,1 4 2 10 5 SE 1019,9 -
18.11.2019 18:00:00 10,7 7,0 6 3 16 9 NW 1019,1 0,0
18.11.2019 17:00:00 10,6 6,7 6 3 17 9 NW 1019,1 0,0
18.11.2019 16:00:00 10,7 6,7 7 4 20 11 NNW 1018,6 0,0
18.11.2019 15:00:00 10,9 6,7 8 4 23 12 NNW 1018,3 0,0
18.11.2019 14:00:00 10,6 6,1 10 5 24 13 NE 1018,3 0,0
18.11.2019 13:00:00 10,2 7,6 6 3 21 11 NNW 1018,5 -
18.11.2019 12:00:00 8,8 7,6 13 7 46 25 NE 1018,7 1,3
18.11.2019 11:00:00 9,9 8,5 6 3 19 11 NNW 1018,0 0,0
18.11.2019 10:00:00 8,6 7,7 5 3 43 23 NW 1017,7 2,0
18.11.2019 09:00:00 9,9 7,0 13 7 35 19 N 1016,6 0,0
18.11.2019 08:00:00 10,6 6,5 12 7 29 16 NNW 1015,7 0,0
18.11.2019 07:00:00 10,2 6,1 11 6 28 15 N 1015,3 -
18.11.2019 06:00:00 10,1 7,0 10 5 36 20 N 1014,5 0,0
18.11.2019 05:00:00 10,2 7,1 14 7 39 21 NNW 1014,2 0,0
18.11.2019 04:00:00 10,2 6,8 11 6 44 24 N 1013,6 0,1
18.11.2019 03:00:00 10,5 7,6 13 7 36 19 NNW 1013,1 0,0
18.11.2019 02:00:00 10,5 6,8 11 6 32 18 N 1012,8 0,0
18.11.2019 01:00:00 10,1 8,4 12 6 31 17 NNE 1012,5 -
18.11.2019 00:00:00 9,3 8,5 16 9 37 20 NE 1012,0 2,2
17.11.2019 23:00:00 8,3 7,7 13 7 32 17 ENE 1011,5 7,0
17.11.2019 22:00:00 8,9 8,1 0 0 26 14 SSE 1010,7 0,5
17.11.2019 21:00:00 9,5 8,4 14 8 36 19 W 1009,3 0,4
17.11.2019 20:00:00 10,4 6,7 14 7 40 22 W 1008,6 0,0
17.11.2019 19:00:00 10,8 7,4 15 8 32 17 W 1008,7 -
17.11.2019 18:00:00 10,5 8,7 16 8 40 21 W 1008,8 0,9
17.11.2019 17:00:00 10,2 8,5 16 9 43 23 W 1008,8 1,0
17.11.2019 16:00:00 10,4 9,3 15 8 40 22 WNW 1009,1 1,2
17.11.2019 15:00:00 11,1 9,6 20 11 41 22 W 1008,9 0,4
17.11.2019 14:00:00 11,1 9,8 18 10 38 21 WNW 1009,3 0,6
17.11.2019 13:00:00 10,9 10,3 17 9 39 21 WNW 1009,3 -
17.11.2019 12:00:00 9,0 8,7 9 5 18 10 SW 1010,0 1,4
17.11.2019 11:00:00 7,5 7,1 10 5 23 12 SSE 1009,9 0,3
17.11.2019 10:00:00 7,2 6,8 11 6 19 10 SSE 1010,3 2,1
17.11.2019 09:00:00 7,1 6,8 9 5 20 11 S 1010,6 0,4
17.11.2019 08:00:00 6,8 6,5 9 5 17 9 SSE 1010,7 0,0
17.11.2019 07:00:00 6,8 6,5 8 5 16 9 SSE 1011,5 -
17.11.2019 06:00:00 6,9 6,5 9 5 14 8 SSE 1011,8 0,4
17.11.2019 05:00:00 7,1 6,7 8 4 13 7 SSE 1012,1 0,1
17.11.2019 04:00:00 8,3 7,6 4 2 14 8 SSW 1012,5 0,5
17.11.2019 03:00:00 8,3 7,4 6 3 19 10 SW 1013,1 0,5
17.11.2019 02:00:00 8,5 7,6 5 3 19 10 W 1013,4 0,4
17.11.2019 01:00:00 8,2 7,1 7 4 33 18 WSW 1013,8 -
17.11.2019 00:00:00 8,7 6,8 9 5 29 16 WSW 1014,1 0,1
16.11.2019 23:00:00 8,5 7,3 7 4 34 18 W 1014,3 2,0
16.11.2019 22:00:00 8,2 7,0 8 4 44 24 WSW 1014,5 1,1
16.11.2019 21:00:00 8,8 7,0 22 12 44 24 W 1014,6 0,2
16.11.2019 20:00:00 9,4 6,7 19 10 43 23 W 1014,4 0,2
16.11.2019 19:00:00 8,6 7,3 18 10 45 24 W 1014,3 -
16.11.2019 18:00:00 8,7 7,6 19 10 51 28 W 1013,9 0,6
16.11.2019 17:00:00 9,2 7,8 20 11 48 26 W 1013,3 2,1
16.11.2019 16:00:00 8,8 7,4 21 12 50 27 W 1013,3 1,2
16.11.2019 15:00:00 9,2 7,8 27 14 52 28 W 1012,8 0,9
16.11.2019 14:00:00 8,9 8,0 22 12 42 23 WNW 1012,6 1,3
16.11.2019 13:00:00 8,3 7,7 23 13 45 24 W 1012,4 -
16.11.2019 12:00:00 7,7 7,1 18 10 41 22 W 1012,9 3,2
16.11.2019 11:00:00 7,8 7,1 19 10 48 26 W 1012,7 3,8
16.11.2019 10:00:00 8,2 7,4 16 9 46 25 WNW 1012,5 4,9
16.11.2019 09:00:00 8,8 7,1 17 9 43 23 W 1011,7 0,6
16.11.2019 08:00:00 7,9 6,5 11 6 35 19 W 1011,3 0,3
16.11.2019 07:00:00 7,5 6,1 10 6 23 13 WSW 1011,2 -
16.11.2019 06:00:00 6,8 6,2 9 5 20 11 WSW 1011,0 0,0
16.11.2019 05:00:00 5,0 4,6 8 4 19 10 SW 1011,2 0,0
16.11.2019 04:00:00 3,5 3,0 8 4 14 7 SSE 1011,4 0,0
16.11.2019 03:00:00 3,8 3,4 8 5 14 8 SSE 1011,5 0,0
16.11.2019 02:00:00 3,9 3,4 9 5 14 8 SSE 1011,0 0,0
16.11.2019 01:00:00 4,3 3,8 8 4 12 6 S 1010,5 -
16.11.2019 00:00:00 4,8 4,3 8 4 12 7 S 1010,1 0,0
15.11.2019 23:00:00 5,7 4,6 3 2 14 8 SW 1009,6 0,0
15.11.2019 22:00:00 6,9 5,5 8 5 28 15 W 1009,0 0,6
15.11.2019 21:00:00 7,0 5,8 13 7 25 13 W 1008,6 0,4
15.11.2019 20:00:00 6,5 5,8 5 3 10 5 SSE 1008,1 0,0
15.11.2019 19:00:00 6,4 5,6 5 3 18 10 SSW 1006,9 -
15.11.2019 18:00:00 6,9 5,9 4 2 16 9 S 1006,3 0,2
15.11.2019 17:00:00 7,1 6,2 8 4 19 11 WSW 1005,3 0,0
15.11.2019 16:00:00 7,5 6,7 5 3 31 17 WSW 1004,9 0,2
15.11.2019 15:00:00 7,2 6,5 16 9 42 23 W 1004,8 1,3
15.11.2019 14:00:00 10,3 7,0 9 5 26 14 N 1003,8 0,0
15.11.2019 13:00:00 9,3 6,4 14 8 29 16 NW 1003,7 -
15.11.2019 12:00:00 10,0 6,8 12 6 45 24 N 1003,9 0,1
15.11.2019 11:00:00 9,6 7,6 24 13 48 26 NNE 1003,0 0,3
15.11.2019 10:00:00 10,1 8,3 22 12 56 30 NNW 1001,7 0,2
15.11.2019 09:00:00 10,1 7,3 30 16 56 30 NW 1000,2 0,1
15.11.2019 08:00:00 10,1 8,5 25 14 54 29 WNW 999,3 0,8
15.11.2019 07:00:00 8,3 7,4 17 9 47 25 W 999,7 -
15.11.2019 06:00:00 7,4 6,7 13 7 32 18 W 999,4 1,3
15.11.2019 05:00:00 7,0 6,2 13 7 31 17 WSW 999,5 0,9
15.11.2019 04:00:00 7,2 5,9 11 6 28 15 WSW 1000,3 0,4
15.11.2019 03:00:00 7,0 5,6 10 6 28 15 WSW 1001,0 0,8
15.11.2019 02:00:00 7,7 5,0 10 5 24 13 W 1001,1 0,0
15.11.2019 01:00:00 7,8 5,1 11 6 28 15 WSW 1001,3 -
15.11.2019 00:00:00 8,0 5,9 11 6 29 16 W 1001,4 0,0
14.11.2019 23:00:00 8,1 5,8 14 8 33 18 W 1001,3 0,0
14.11.2019 22:00:00 7,1 5,3 10 5 21 11 W 1001,4 0,0
14.11.2019 21:00:00 7,1 5,5 10 5 32 17 W 1001,0 0,0
14.11.2019 20:00:00 7,5 5,8 12 6 31 17 WNW 1000,6 0,0
14.11.2019 19:00:00 7,7 5,8 18 10 34 18 WNW 999,7 -
14.11.2019 18:00:00 8,5 6,1 7 4 15 8 NW 999,3 0,1
14.11.2019 17:00:00 8,5 6,1 10 5 30 16 NW 998,9 0,2
14.11.2019 16:00:00 8,2 6,8 12 6 38 20 NNW 998,4 0,1
14.11.2019 15:00:00 9,8 6,8 9 5 24 13 NNW 998,3 0,0
14.11.2019 14:00:00 11,4 3,9 4 2 17 9 W 998,6 0,0
14.11.2019 13:00:00 10,2 4,1 5 3 23 13 WSW 999,2 -
14.11.2019 12:00:00 10,3 4,6 8 4 17 9 SW 1000,8 0,0
14.11.2019 11:00:00 10,8 5,0 8 4 29 16 S 1000,7 0,0
14.11.2019 10:00:00 8,7 3,8 8 4 23 12 WSW 1001,3 0,0
14.11.2019 09:00:00 8,5 4,3 9 5 27 15 WSW 1002,5 0,0
14.11.2019 08:00:00 8,0 3,9 14 8 35 19 W 1002,4 0,0
14.11.2019 07:00:00 7,3 5,6 11 6 31 17 W 1002,7 -
14.11.2019 06:00:00 6,5 5,1 16 9 51 28 W 1003,3 0,5
14.11.2019 05:00:00 6,6 5,8 19 10 53 29 W 1004,1 2,3
14.11.2019 04:00:00 6,8 6,2 17 9 51 28 WNW 1004,4 6,0
14.11.2019 03:00:00 7,4 6,8 27 14 50 27 WNW 1005,1 6,9
14.11.2019 02:00:00 8,2 7,6 17 9 50 27 WNW 1005,3 3,6
14.11.2019 01:00:00 9,4 8,7 24 13 55 30 WNW 1005,4 -
14.11.2019 00:00:00 9,8 9,2 26 14 50 27 WNW 1005,4 2,6
13.11.2019 23:00:00 10,0 8,8 9 5 21 11 S 1004,5 0,0
13.11.2019 22:00:00 10,6 9,0 7 4 18 10 SSW 1005,6 0,0
13.11.2019 21:00:00 11,5 9,0 8 5 16 8 S 1006,8 0,0
13.11.2019 20:00:00 11,6 9,6 7 4 20 11 WSW 1008,6 0,0
13.11.2019 19:00:00 11,7 9,3 6 4 19 10 W 1009,7 -

tt = temperature
td = dewpoint
ff = wind speed
fx = gusts
dd = wind direction
ppp = reduced air pressure
rr = precipitation

Next stations